Weather at La Escondida Airport

Public forecast

Using degrees Celsius for public forecast. Weather courtesy of forecast.io.

Closest aviation weather report (METAR) to La Escondida Airport

Closest report is Frank Pais International Airport, 42.1 nm (78.1 km) ENE.

2023/09/29 00:50 (retrieved 31 minutes ago)

MUHG 290050Z 07007KT 9999 FEW030 27/24 Q1011

Closest aviation forecast (TAF) to La Escondida Airport

Forecast is more than 6 hours old.

Closest forecast is Leeward Point Field, 104.4 nm (193.3 km) ESE.

2023/09/28 18:54 Ammendment (retrieved 6 hours ago)

TAF AMD MUGM 2818/2915 10012KT 9999 VCSH FEW030CB SCT060 BKN250 QNH2979INS TEMPO 2818/2820 VRB15G25KT 8000 -TSRA SCT030CB BKN060 BECMG 2821/2823 09009KT 9999 NSW FEW030 FEW090 BKN250 QNH2981INS FM290200 33006KT 9999 FEW030 QNH2982INS FM290800 33006KT 9999 VCSH FEW030CB SCT080 BKN250 QNH2982INS FM291300 34006KT 9999 FEW030 FEW080 SCT250 QNH2987INS TX32/2818Z TN26/2911Z AMD 1841 FN20094